Time;durP1;ratioP1;P1;durP2;ratioP2;P2;SDS_P1;SDS_P2;PMS_P1;PMS_P2;Temp;Humidity;BMP_temperature;BMP_pressure;BME280_temperature;BME280_humidity;BME280_pressure;Samples;Min_cycle;Max_cycle;Signal;HPM_P1;HPM_P2
2021/07/07 00:00:01;;;;;;;2.95;2.75;;;17.90;99.90;;;;;;5096825;28;20301;-72
2021/07/07 00:02:28;;;;;;;2.55;2.35;;;18.00;99.90;;;;;;5096858;28;20202;-72
2021/07/07 00:04:55;;;;;;;3.30;2.88;;;18.10;99.90;;;;;;5097097;28;20237;-73
2021/07/07 00:07:24;;;;;;;2.90;2.70;;;18.10;99.90;;;;;;5096834;28;20301;-73
2021/07/07 00:09:50;;;;;;;2.70;2.50;;;18.00;99.90;;;;;;5097292;28;20202;-73
2021/07/07 00:12:17;;;;;;;3.38;2.80;;;18.00;99.90;;;;;;5096731;28;20297;-73
2021/07/07 00:14:44;;;;;;;2.63;2.42;;;18.00;99.90;;;;;;5096818;28;20229;-73
2021/07/07 00:17:11;;;;;;;2.85;2.65;;;18.10;99.90;;;;;;5096706;28;20233;-73
2021/07/07 00:19:38;;;;;;;2.72;2.53;;;18.10;99.90;;;;;;5097389;28;20199;-73
2021/07/07 00:22:05;;;;;;;2.45;2.25;;;18.20;99.90;;;;;;5096184;28;20293;-73
2021/07/07 00:24:33;;;;;;;2.15;1.95;;;18.20;99.90;;;;;;5096821;28;20716;-72
2021/07/07 00:27:00;;;;;;;1.83;1.73;;;18.10;99.90;;;;;;5096310;28;20226;-72
2021/07/07 00:29:27;;;;;;;5.25;2.70;;;18.10;99.90;;;;;;5096486;28;20289;-72
2021/07/07 00:31:53;;;;;;;3.55;2.08;;;18.10;99.90;;;;;;5096496;28;20552;-72
2021/07/07 00:34:20;;;;;;;2.45;2.13;;;18.10;99.90;;;;;;5096622;28;20289;-72
2021/07/07 00:36:47;;;;;;;2.55;2.35;;;18.10;99.90;;;;;;5096804;28;20297;-72
2021/07/07 00:39:14;;;;;;;5.30;2.13;;;18.20;99.90;;;;;;5095741;28;20218;-72
2021/07/07 00:41:42;;;;;;;1.85;1.75;;;18.20;99.90;;;;;;5096038;28;20568;-72
2021/07/07 00:44:09;;;;;;;2.28;2.08;;;18.20;99.90;;;;;;5096512;28;20206;-72
2021/07/07 00:46:37;;;;;;;2.20;2.00;;;18.20;99.90;;;;;;5096304;28;20206;-73
2021/07/07 00:49:04;;;;;;;3.92;3.65;;;18.20;99.90;;;;;;5096552;28;20611;-72
2021/07/07 00:51:32;;;;;;;2.60;2.40;;;18.10;99.90;;;;;;5095677;28;20229;-72
2021/07/07 00:54:02;;;;;;;2.10;2.00;;;18.10;99.90;;;;;;5095928;28;20210;-72
2021/07/07 00:56:29;;;;;;;3.08;2.33;;;18.10;99.90;;;;;;5096405;28;20212;-72
2021/07/07 00:58:59;;;;;;;2.70;2.20;;;18.10;99.90;;;;;;5096100;28;20229;-72
2021/07/07 01:01:26;;;;;;;6.10;2.53;;;18.10;99.90;;;;;;5095969;28;20236;-72
2021/07/07 01:03:53;;;;;;;5.43;2.60;;;17.90;99.90;;;;;;5096143;28;20206;-72
2021/07/07 01:06:20;;;;;;;2.75;2.55;;;17.80;99.90;;;;;;5096109;28;20201;-72
2021/07/07 01:08:47;;;;;;;3.47;2.80;;;17.80;99.90;;;;;;5095751;28;20305;-72
2021/07/07 01:11:14;;;;;;;3.40;3.10;;;17.70;99.90;;;;;;5095654;28;20205;-72
2021/07/07 01:13:41;;;;;;;3.28;2.97;;;17.50;99.90;;;;;;5095790;28;20288;-72
2021/07/07 01:16:10;;;;;;;2.70;2.50;;;17.50;99.90;;;;;;5095674;28;20251;-72
2021/07/07 01:18:37;;;;;;;3.60;3.30;;;17.40;99.90;;;;;;5095626;28;20313;-72
2021/07/07 01:21:04;;;;;;;2.72;2.53;;;17.40;99.90;;;;;;5095657;28;20325;-72
2021/07/07 01:23:32;;;;;;;3.78;3.47;;;17.40;99.90;;;;;;5095626;28;20208;-72
2021/07/07 01:25:59;;;;;;;3.78;3.45;;;17.40;99.90;;;;;;5095488;28;20288;-72
2021/07/07 01:28:27;;;;;;;7.53;3.83;;;17.50;99.90;;;;;;5095665;28;20221;-72
2021/07/07 01:30:55;;;;;;;3.80;3.50;;;17.70;99.90;;;;;;5095073;28;20252;-72
2021/07/07 01:33:22;;;;;;;4.15;3.60;;;17.70;99.90;;;;;;5095525;28;20232;-72
2021/07/07 01:35:49;;;;;;;4.93;3.42;;;17.90;99.90;;;;;;5094897;28;20293;-72
2021/07/07 01:38:16;;;;;;;3.97;3.58;;;18.00;99.90;;;;;;5095027;28;20324;-72
2021/07/07 01:40:44;;;;;;;4.15;3.83;;;18.00;99.90;;;;;;5094596;28;20567;-73
2021/07/07 01:43:11;;;;;;;4.00;3.60;;;18.00;99.90;;;;;;5095326;28;20209;-72
2021/07/07 01:45:38;;;;;;;6.30;4.20;;;18.00;99.90;;;;;;5095338;28;20209;-72
2021/07/07 01:48:05;;;;;;;6.20;3.97;;;18.00;99.90;;;;;;5094762;28;20309;-72
2021/07/07 01:50:32;;;;;;;4.80;4.30;;;17.90;99.90;;;;;;5093429;28;20202;-72
2021/07/07 01:52:59;;;;;;;4.82;4.30;;;17.70;99.90;;;;;;5094740;28;20309;-72
2021/07/07 01:55:26;;;;;;;4.65;4.25;;;17.70;99.90;;;;;;5094982;28;20427;-72
2021/07/07 01:57:55;;;;;;;6.65;4.55;;;17.80;99.90;;;;;;5094889;28;20225;-72
2021/07/07 02:00:24;;;;;;;4.53;4.15;;;18.00;99.90;;;;;;5095041;28;20308;-72
2021/07/07 02:02:52;;;;;;;5.00;4.50;;;18.00;99.90;;;;;;5094484;28;20294;-72
2021/07/07 02:05:21;;;;;;;5.15;4.65;;;18.10;99.90;;;;;;5094499;28;20292;-72
2021/07/07 02:07:48;;;;;;;4.97;4.50;;;18.10;99.90;;;;;;5094307;28;20228;-72
2021/07/07 02:10:16;;;;;;;4.95;4.50;;;18.10;99.90;;;;;;5094709;28;20206;-73
2021/07/07 02:12:43;;;;;;;4.90;4.20;;;18.10;99.90;;;;;;5094805;28;20297;-72
2021/07/07 02:15:14;;;;;;;5.85;4.72;;;18.10;99.90;;;;;;5094752;28;20206;-72
2021/07/07 02:17:42;;;;;;;6.30;4.85;;;18.00;99.90;;;;;;5094553;28;20309;-72
2021/07/07 02:20:11;;;;;;;5.68;4.80;;;18.00;99.90;;;;;;5094042;28;20710;-72
2021/07/07 02:22:39;;;;;;;5.65;4.85;;;17.90;99.90;;;;;;5094532;28;20555;-73
2021/07/07 02:25:08;;;;;;;5.68;4.97;;;17.90;99.90;;;;;;5094509;28;20301;-73
2021/07/07 02:27:35;;;;;;;8.88;4.88;;;18.00;99.90;;;;;;5094569;28;20648;-73
2021/07/07 02:30:02;;;;;;;5.82;5.22;;;18.00;99.90;;;;;;5094060;28;20201;-73
2021/07/07 02:32:30;;;;;;;5.18;4.65;;;18.10;99.90;;;;;;5094276;28;20198;-73
2021/07/07 02:34:57;;;;;;;5.28;4.68;;;18.10;99.90;;;;;;5094230;28;20205;-73
2021/07/07 02:37:24;;;;;;;5.60;4.68;;;18.20;99.90;;;;;;5094317;28;20308;-73
2021/07/07 02:39:51;;;;;;;9.07;5.90;;;18.20;99.90;;;;;;5094721;28;20226;-72
2021/07/07 02:42:18;;;;;;;6.03;5.25;;;18.10;99.90;;;;;;5093830;28;20780;-73
2021/07/07 02:44:45;;;;;;;7.38;6.22;;;17.90;99.90;;;;;;5093838;28;20544;-73
2021/07/07 02:47:12;;;;;;;7.05;6.35;;;17.90;99.90;;;;;;5093877;28;20684;-74
2021/07/07 02:49:40;;;;;;;6.90;6.20;;;17.90;99.90;;;;;;5093918;28;20201;-73
2021/07/07 02:52:07;;;;;;;7.90;5.20;;;17.90;99.90;;;;;;5094317;28;20206;-73
2021/07/07 02:54:34;;;;;;;6.70;5.90;;;17.90;99.90;;;;;;5094131;28;20237;-73
2021/07/07 02:57:01;;;;;;;7.63;6.35;;;17.90;99.90;;;;;;5093467;28;20312;-73
2021/07/07 02:59:28;;;;;;;7.50;6.72;;;17.90;99.90;;;;;;5093981;28;20222;-73
2021/07/07 03:01:55;;;;;;;7.50;6.53;;;17.90;99.90;;;;;;5093205;28;20216;-73
2021/07/07 03:04:22;;;;;;;8.25;6.80;;;18.00;99.90;;;;;;5094081;28;20202;-73
2021/07/07 03:06:50;;;;;;;5.65;5.15;;;18.00;99.90;;;;;;5093989;28;20293;-72
2021/07/07 03:09:17;;;;;;;6.40;5.80;;;18.10;99.90;;;;;;5094359;28;20232;-73
2021/07/07 03:11:43;;;;;;;9.68;5.60;;;18.10;99.90;;;;;;5093590;28;20202;-72
2021/07/07 03:14:10;;;;;;;6.65;6.10;;;18.00;99.90;;;;;;5093853;28;20206;-73
2021/07/07 03:16:37;;;;;;;6.35;5.75;;;17.90;99.90;;;;;;5093720;28;20297;-72
2021/07/07 03:19:04;;;;;;;6.05;5.45;;;17.70;99.90;;;;;;5094268;28;20226;-73
2021/07/07 03:21:31;;;;;;;8.10;6.65;;;17.60;99.90;;;;;;5093223;28;20297;-72
2021/07/07 03:23:59;;;;;;;14.43;7.43;;;17.60;99.90;;;;;;5094015;28;20206;-73
2021/07/07 03:26:25;;;;;;;9.15;7.68;;;17.40;99.90;;;;;;5093650;28;20293;-73
2021/07/07 03:28:52;;;;;;;10.93;8.23;;;17.30;99.90;;;;;;5093503;28;20218;-72
2021/07/07 03:31:19;;;;;;;7.78;6.78;;;17.40;99.90;;;;;;5093981;28;20289;-72
2021/07/07 03:33:46;;;;;;;8.73;7.43;;;17.50;99.90;;;;;;5093844;28;20206;-73
2021/07/07 03:36:13;;;;;;;8.30;7.15;;;17.60;99.90;;;;;;5093833;28;20293;-73
2021/07/07 03:38:40;;;;;;;7.30;6.60;;;17.70;99.90;;;;;;5093410;28;20610;-72
2021/07/07 03:41:08;;;;;;;8.52;7.25;;;17.80;99.90;;;;;;5093088;28;20210;-73
2021/07/07 03:43:35;;;;;;;8.00;7.10;;;17.80;99.90;;;;;;5093381;28;20209;-73
2021/07/07 03:46:01;;;;;;;10.55;6.88;;;17.80;99.90;;;;;;5093665;28;20293;-73
2021/07/07 03:48:28;;;;;;;8.00;7.20;;;17.80;99.90;;;;;;5093176;28;20223;-73
2021/07/07 03:50:55;;;;;;;8.68;7.10;;;17.90;99.90;;;;;;5093517;28;20210;-73
2021/07/07 03:53:22;;;;;;;11.25;8.73;;;17.80;99.90;;;;;;5093356;28;20292;-73
2021/07/07 03:55:49;;;;;;;9.32;8.25;;;17.80;99.90;;;;;;5093403;28;20224;-73
2021/07/07 03:58:17;;;;;;;9.65;8.48;;;17.70;99.90;;;;;;5093594;28;20313;-73
2021/07/07 04:00:44;;;;;;;13.20;9.15;;;17.60;99.90;;;;;;5093069;28;20289;-72
2021/07/07 04:03:11;;;;;;;9.27;8.25;;;17.50;99.90;;;;;;5093627;28;20581;-73
2021/07/07 04:05:38;;;;;;;9.25;7.88;;;17.40;99.90;;;;;;5093603;28;20256;-73
2021/07/07 04:08:05;;;;;;;10.82;8.35;;;17.20;99.90;;;;;;5093332;28;20238;-73
2021/07/07 04:10:32;;;;;;;7.53;6.75;;;17.10;99.90;;;;;;5092919;28;20234;-72
2021/07/07 04:12:59;;;;;;;6.82;6.20;;;17.00;99.90;;;;;;5093405;28;20243;-73
2021/07/07 04:15:27;;;;;;;6.93;6.10;;;16.90;99.90;;;;;;5096701;28;20722;-73
2021/07/07 04:17:54;;;;;;;6.82;6.13;;;16.90;99.90;;;;;;5096599;28;20312;-72
2021/07/07 04:20:21;;;;;;;8.27;7.10;;;16.90;99.90;;;;;;5097146;28;20574;-72
2021/07/07 04:22:49;;;;;;;6.88;6.25;;;16.80;99.90;;;;;;5096730;28;20245;-73
2021/07/07 04:25:16;;;;;;;6.72;6.13;;;16.90;99.90;;;;;;5096754;28;20201;-73
2021/07/07 04:27:44;;;;;;;6.85;6.15;;;16.90;99.90;;;;;;5096909;28;20633;-73
2021/07/07 04:30:14;;;;;;;8.15;7.00;;;16.80;99.90;;;;;;5096523;28;20202;-73
2021/07/07 04:32:43;;;;;;;7.68;6.75;;;16.80;99.90;;;;;;5096599;28;20206;-72
2021/07/07 04:35:11;;;;;;;7.35;6.60;;;16.80;99.90;;;;;;5096857;28;20202;-73
2021/07/07 04:37:38;;;;;;;8.18;7.15;;;16.80;99.90;;;;;;5096126;28;20648;-73
2021/07/07 04:40:07;;;;;;;7.40;6.72;;;16.80;99.90;;;;;;5096412;28;20558;-72
2021/07/07 04:42:33;;;;;;;8.13;6.93;;;16.80;99.90;;;;;;5096421;28;20300;-74
2021/07/07 04:45:00;;;;;;;8.60;6.90;;;16.80;99.90;;;;;;5096328;28;20287;-73
2021/07/07 04:47:27;;;;;;;8.80;7.18;;;16.90;99.90;;;;;;5096199;28;20224;-73
2021/07/07 04:49:55;;;;;;;8.15;7.00;;;17.00;99.90;;;;;;5096033;28;20288;-72
2021/07/07 04:52:22;;;;;;;6.82;6.22;;;17.00;99.90;;;;;;5096249;28;20289;-73
2021/07/07 04:54:49;;;;;;;8.32;5.90;;;17.20;99.90;;;;;;5096275;28;20208;-72
2021/07/07 04:57:16;;;;;;;6.45;5.78;;;17.20;99.90;;;;;;5096032;28;20226;-73
2021/07/07 04:59:43;;;;;;;9.52;6.00;;;17.30;99.90;;;;;;5096471;28;20692;-72
2021/07/07 05:02:10;;;;;;;8.10;7.28;;;17.30;99.90;;;;;;5095748;28;20209;-73
2021/07/07 05:04:37;;;;;;;6.30;5.70;;;17.40;99.90;;;;;;5095741;28;20659;-73
2021/07/07 05:07:05;;;;;;;7.00;5.82;;;17.40;99.90;;;;;;5095928;28;20218;-73
2021/07/07 05:09:32;;;;;;;6.18;5.57;;;17.30;99.90;;;;;;5096251;28;20301;-73
2021/07/07 05:11:59;;;;;;;6.07;5.28;;;17.30;99.90;;;;;;5095879;28;20556;-72
2021/07/07 05:14:26;;;;;;;5.63;5.05;;;17.40;99.90;;;;;;5095525;28;20208;-73
2021/07/07 05:16:53;;;;;;;4.90;4.22;;;17.40;99.90;;;;;;5095508;28;20297;-73
2021/07/07 05:19:20;;;;;;;4.10;3.70;;;17.50;99.90;;;;;;5095770;28;20631;-73
2021/07/07 05:21:46;;;;;;;3.90;3.60;;;17.50;99.90;;;;;;5095412;28;20297;-72
2021/07/07 05:24:14;;;;;;;4.30;3.90;;;17.40;99.90;;;;;;5095594;28;20212;-73
2021/07/07 05:26:41;;;;;;;4.70;4.22;;;17.30;99.90;;;;;;5095563;28;20640;-73
2021/07/07 05:29:08;;;;;;;7.43;4.32;;;17.30;99.90;;;;;;5095266;28;20201;-73
2021/07/07 05:31:37;;;;;;;10.40;5.13;;;17.40;99.90;;;;;;5095206;28;20201;-72
2021/07/07 05:34:04;;;;;;;5.25;4.82;;;17.30;99.90;;;;;;5095225;28;20726;-73
2021/07/07 05:36:31;;;;;;;4.28;3.63;;;17.40;99.90;;;;;;5095554;28;20655;-73
2021/07/07 05:38:58;;;;;;;3.60;3.30;;;17.50;99.90;;;;;;5095612;28;20226;-73
2021/07/07 05:41:26;;;;;;;3.20;2.90;;;17.60;99.90;;;;;;5094999;28;20214;-73
2021/07/07 05:43:54;;;;;;;3.00;2.80;;;17.70;99.90;;;;;;5095081;28;20293;-73
2021/07/07 05:46:21;;;;;;;3.42;3.13;;;17.80;99.90;;;;;;5094742;28;20293;-73
2021/07/07 05:48:48;;;;;;;3.33;2.63;;;17.80;99.90;;;;;;5094850;28;20222;-73
2021/07/07 05:51:16;;;;;;;3.60;3.30;;;17.80;99.90;;;;;;5094589;28;20290;-72
2021/07/07 05:53:43;;;;;;;4.00;3.20;;;17.80;99.90;;;;;;5095171;28;20210;-73
2021/07/07 05:56:10;;;;;;;4.68;3.85;;;17.70;99.90;;;;;;5094563;28;20648;-73
2021/07/07 05:58:39;;;;;;;6.25;4.00;;;17.60;99.90;;;;;;5094657;28;20313;-73
2021/07/07 06:01:05;;;;;;;5.32;4.15;;;17.60;99.90;;;;;;5094679;28;20225;-72
2021/07/07 06:03:32;;;;;;;6.30;3.97;;;17.70;99.90;;;;;;5094837;28;20293;-73
2021/07/07 06:06:00;;;;;;;6.45;3.70;;;17.80;99.90;;;;;;5095007;28;20288;-73
2021/07/07 06:08:27;;;;;;;4.78;3.45;;;18.00;99.90;;;;;;5094472;28;20222;-73
2021/07/07 06:10:53;;;;;;;5.05;3.00;;;18.00;99.90;;;;;;5094451;28;20288;-72
2021/07/07 06:13:20;;;;;;;4.40;3.40;;;18.10;99.90;;;;;;5094433;28;20715;-73
2021/07/07 06:15:48;;;;;;;4.43;3.55;;;18.00;99.90;;;;;;5094543;28;20707;-73
2021/07/07 06:18:15;;;;;;;5.60;3.70;;;18.00;99.90;;;;;;5094648;28;20221;-72
2021/07/07 06:20:43;;;;;;;4.32;3.00;;;18.00;99.90;;;;;;5094501;28;20222;-72
2021/07/07 06:23:10;;;;;;;3.85;3.55;;;18.00;99.90;;;;;;5094273;28;20221;-73
2021/07/07 06:25:36;;;;;;;3.30;3.00;;;18.10;99.90;;;;;;5094214;28;20298;-72
2021/07/07 06:28:04;;;;;;;8.15;3.00;;;18.20;99.90;;;;;;5094638;28;20313;-73
2021/07/07 06:30:31;;;;;;;3.15;2.85;;;18.10;99.90;;;;;;5094098;28;20563;-72
2021/07/07 06:33:01;;;;;;;3.70;3.30;;;17.90;99.90;;;;;;5094529;28;20208;-73
2021/07/07 06:35:30;;;;;;;3.40;3.10;;;18.10;99.90;;;;;;5094589;28;20579;-73
2021/07/07 06:37:58;;;;;;;3.85;3.20;;;18.10;99.90;;;;;;5093618;28;20250;-73
2021/07/07 06:40:25;;;;;;;3.28;3.00;;;18.30;99.90;;;;;;5093578;28;20711;-73
2021/07/07 06:42:53;;;;;;;3.35;3.03;;;18.30;99.90;;;;;;5094041;28;20248;-73
2021/07/07 06:45:21;;;;;;;3.10;2.45;;;18.50;99.90;;;;;;5094336;28;20534;-73
2021/07/07 06:47:48;;;;;;;4.10;2.90;;;18.50;99.90;;;;;;5093934;28;20226;-73
2021/07/07 06:50:17;;;;;;;5.07;3.70;;;18.50;99.90;;;;;;5093717;28;20288;-72
2021/07/07 06:52:44;;;;;;;5.43;4.05;;;18.60;99.90;;;;;;5094006;28;20298;-75
2021/07/07 06:55:11;;;;;;;4.00;3.60;;;18.60;99.90;;;;;;5094062;28;20199;-74
2021/07/07 06:57:39;;;;;;;5.40;3.13;;;18.50;99.90;;;;;;5094072;28;20233;-74
2021/07/07 07:00:09;;;;;;;3.22;2.95;;;18.50;99.90;;;;;;5093827;28;20309;-73
2021/07/07 07:02:36;;;;;;;3.05;2.60;;;18.50;99.90;;;;;;5094125;28;20202;-73
2021/07/07 07:05:03;;;;;;;4.35;2.92;;;18.40;99.90;;;;;;5093864;28;20206;-74
2021/07/07 07:07:32;;;;;;;3.22;2.88;;;18.30;99.90;;;;;;5093590;28;20261;-74
2021/07/07 07:09:59;;;;;;;2.80;2.60;;;18.30;99.90;;;;;;5093690;28;20205;-73
2021/07/07 07:12:27;;;;;;;9.82;4.10;;;18.30;99.90;;;;;;5093919;28;20229;-74
2021/07/07 07:14:53;;;;;;;3.30;3.05;;;18.30;99.90;;;;;;5094040;28;20201;-74
2021/07/07 07:17:21;;;;;;;5.43;3.10;;;18.40;99.90;;;;;;5093541;28;20313;-74
2021/07/07 07:19:48;;;;;;;3.50;3.15;;;18.40;99.90;;;;;;5093620;28;20626;-73
2021/07/07 07:22:15;;;;;;;2.95;2.75;;;18.40;99.90;;;;;;5093768;28;20209;-74
2021/07/07 07:24:44;;;;;;;2.88;2.67;;;18.30;99.90;;;;;;5093874;28;20232;-74
2021/07/07 07:27:12;;;;;;;2.28;2.05;;;18.30;99.90;;;;;;5093275;28;20704;-74
2021/07/07 07:29:39;;;;;;;5.25;2.17;;;18.30;99.90;;;;;;5094231;28;20293;-74
2021/07/07 07:32:07;;;;;;;2.60;1.90;;;18.30;99.90;;;;;;5093177;28;20213;-73
2021/07/07 07:34:34;;;;;;;2.00;1.90;;;18.30;99.90;;;;;;5087237;28;20312;-75
2021/07/07 07:37:02;;;;;;;2.40;2.20;;;18.50;99.90;;;;;;5079700;28;20217;-76
2021/07/07 07:39:38;;;;;;;2.50;2.30;;;18.40;99.90;;;;;;5071965;28;20207;-76
2021/07/07 07:42:07;;;;;;;2.30;2.10;;;18.50;99.90;;;;;;5071803;28;20210;-75
2021/07/07 07:44:34;;;;;;;3.13;2.70;;;18.60;99.90;;;;;;5072616;28;20210;-75
2021/07/07 07:47:01;;;;;;;2.53;2.33;;;18.70;99.90;;;;;;5071733;28;20736;-76
2021/07/07 07:49:31;;;;;;;2.60;2.40;;;18.80;99.90;;;;;;5074764;28;20245;-71
2021/07/07 07:51:57;;;;;;;2.60;2.40;;;18.80;99.90;;;;;;5075973;28;21026;-72
2021/07/07 07:54:28;;;;;;;3.35;2.25;;;18.90;99.90;;;;;;5075654;28;20732;-72
2021/07/07 07:56:55;;;;;;;3.58;3.22;;;18.80;99.90;;;;;;5075450;28;20669;-71
2021/07/07 07:59:24;;;;;;;2.95;2.65;;;18.70;99.90;;;;;;5075163;28;20210;-74
2021/07/07 08:01:57;;;;;;;3.78;2.42;;;18.70;99.90;;;;;;5075838;28;20230;-77
2021/07/07 08:07:49;;;;;;;3.80;3.50;;;18.50;99.90;;;;;;5004558;28;20318;-74
2021/07/07 08:17:17;;;;;;;3.58;3.28;;;18.50;99.90;;;;;;5110102;28;20197;-75
2021/07/07 08:19:55;;;;;;;3.28;3.03;;;18.60;99.90;;;;;;5116201;28;20201;-76
2021/07/07 08:22:22;;;;;;;3.90;2.83;;;18.70;99.90;;;;;;5116194;28;20733;-74
2021/07/07 08:24:49;;;;;;;3.33;3.03;;;18.80;99.90;;;;;;5117333;28;20198;-78
2021/07/07 08:29:51;;;;;;;3.80;3.05;;;18.90;99.90;;;;;;5711752;22;20238;-76
2021/07/07 08:32:19;;;;;;;4.00;2.55;;;18.90;99.90;;;;;;5076293;28;20291;-77
2021/07/07 08:34:46;;;;;;;2.73;2.40;;;18.80;99.90;;;;;;5075963;28;20649;-77
2021/07/07 08:37:14;;;;;;;3.67;2.83;;;18.80;99.90;;;;;;5080291;28;20473;-77
2021/07/07 08:39:42;;;;;;;2.50;2.30;;;18.80;99.90;;;;;;5096426;28;20649;-77
2021/07/07 08:42:09;;;;;;;4.10;2.80;;;18.80;99.90;;;;;;5096201;28;20281;-77
2021/07/07 08:44:36;;;;;;;3.75;2.60;;;18.90;99.90;;;;;;5096540;28;20199;-77
2021/07/07 08:47:03;;;;;;;2.65;2.45;;;19.00;99.90;;;;;;5096039;28;20543;-77
2021/07/07 08:49:32;;;;;;;2.72;2.53;;;19.00;99.90;;;;;;5096350;28;20208;-77
2021/07/07 08:51:58;;;;;;;3.55;2.90;;;19.10;99.90;;;;;;5095915;28;20293;-77
2021/07/07 08:54:25;;;;;;;3.45;2.83;;;19.10;99.90;;;;;;5096326;28;20288;-77
2021/07/07 08:56:52;;;;;;;3.10;2.83;;;19.00;99.90;;;;;;5096262;28;20560;-77
2021/07/07 08:59:19;;;;;;;4.85;2.90;;;18.90;99.90;;;;;;5095784;28;20240;-77
2021/07/07 09:02:04;;;;;;;4.82;2.90;;;18.90;99.90;;;;;;5095553;28;20605;-77
2021/07/07 09:04:35;;;;;;;4.10;2.80;;;18.80;99.90;;;;;;5096261;28;20289;-77
2021/07/07 09:07:05;;;;;;;4.40;2.80;;;18.60;99.90;;;;;;5096487;28;20619;-77
2021/07/07 09:09:41;;;;;;;3.85;2.97;;;18.60;99.90;;;;;;5096258;28;20293;-77
2021/07/07 09:12:16;;;;;;;5.97;3.10;;;18.90;99.90;;;;;;5095622;28;20205;-77
2021/07/07 09:14:43;;;;;;;5.33;2.63;;;19.20;99.90;;;;;;5096057;28;20531;-77
2021/07/07 09:17:12;;;;;;;2.63;2.43;;;19.40;99.90;;;;;;5095873;28;20867;-77
2021/07/07 09:19:41;;;;;;;4.30;2.43;;;19.50;99.90;;;;;;5096063;28;20449;-77
2021/07/07 09:22:10;;;;;;;2.80;2.47;;;19.60;99.90;;;;;;5095571;28;20563;-77
2021/07/07 09:24:38;;;;;;;2.10;2.00;;;19.70;99.90;;;;;;5095403;28;20448;-77
2021/07/07 09:27:07;;;;;;;2.40;2.30;;;19.80;99.90;;;;;;5095084;28;20475;-77
2021/07/07 09:29:35;;;;;;;2.47;2.27;;;19.80;99.90;;;;;;5095311;28;20482;-77
2021/07/07 09:32:14;;;;;;;2.30;2.20;;;19.80;99.90;;;;;;5095524;28;20873;-77
2021/07/07 09:34:44;;;;;;;2.30;2.10;;;19.90;99.90;;;;;;5095612;28;20536;-77
2021/07/07 09:37:21;;;;;;;2.23;2.03;;;19.90;99.90;;;;;;5094888;28;20552;-77
2021/07/07 09:39:49;;;;;;;2.97;2.17;;;20.00;99.90;;;;;;5095334;28;20437;-77
2021/07/07 09:42:23;;;;;;;2.87;2.30;;;20.00;99.90;;;;;;5095217;28;20560;-77
2021/07/07 09:44:50;;;;;;;4.10;2.27;;;19.90;99.90;;;;;;5095464;28;20535;-77
2021/07/07 09:47:19;;;;;;;2.57;2.37;;;19.80;99.90;;;;;;5095020;28;20504;-77
2021/07/07 09:49:48;;;;;;;3.97;2.57;;;19.70;99.90;;;;;;5094933;28;20472;-77
2021/07/07 09:52:16;;;;;;;4.07;2.90;;;19.50;99.90;;;;;;5095116;28;20446;-77
2021/07/07 09:54:44;;;;;;;2.80;2.53;;;19.50;99.90;;;;;;5095057;28;20532;-78
2021/07/07 09:57:11;;;;;;;2.80;2.10;;;19.60;99.90;;;;;;5095259;28;20460;-78
2021/07/07 09:59:38;;;;;;;2.27;2.00;;;19.70;99.90;;;;;;5095491;28;20539;-78
2021/07/07 10:02:05;;;;;;;3.00;2.40;;;19.70;99.90;;;;;;5094457;28;20479;-78
2021/07/07 10:04:34;;;;;;;2.50;2.30;;;19.70;99.90;;;;;;5095104;28;20473;-78
2021/07/07 10:07:02;;;;;;;4.03;2.40;;;19.80;99.90;;;;;;5094801;28;20915;-77
2021/07/07 10:09:30;;;;;;;2.83;2.63;;;19.80;99.90;;;;;;5094695;28;20449;-78
2021/07/07 10:11:58;;;;;;;2.80;2.50;;;19.80;99.90;;;;;;5094194;28;20440;-78
2021/07/07 10:14:25;;;;;;;2.90;2.70;;;19.90;99.90;;;;;;5094838;28;20481;-78
2021/07/07 10:16:52;;;;;;;3.30;2.40;;;19.80;99.90;;;;;;5094689;28;20523;-77
2021/07/07 10:19:19;;;;;;;3.00;2.67;;;19.80;99.90;;;;;;5095040;28;20524;-78
2021/07/07 10:21:46;;;;;;;4.50;2.67;;;19.90;99.90;;;;;;5094403;28;20482;-78
2021/07/07 10:24:18;;;;;;;2.60;2.40;;;20.00;99.90;;;;;;5094726;28;20530;-77
2021/07/07 10:26:45;;;;;;;2.60;2.40;;;20.10;99.90;;;;;;5094582;28;20450;-78
2021/07/07 10:29:14;;;;;;;2.20;2.00;;;20.20;99.90;;;;;;5094243;28;20550;-78
2021/07/07 10:31:49;;;;;;;2.37;2.17;;;20.30;99.90;;;;;;5094163;28;20527;-77
2021/07/07 10:34:16;;;;;;;2.77;2.57;;;20.40;99.90;;;;;;5094427;28;20520;-77
2021/07/07 10:36:43;;;;;;;2.63;2.43;;;20.30;99.90;;;;;;5094179;28;20448;-77
2021/07/07 10:39:12;;;;;;;3.70;3.00;;;20.00;99.90;;;;;;5094722;28;20529;-77
2021/07/07 10:41:58;;;;;;;4.60;2.60;;;19.90;99.90;;;;;;5093815;28;20477;-77
2021/07/07 10:44:48;;;;;;;4.50;3.70;;;19.90;99.90;;;;;;5094225;28;20443;-78
2021/07/07 10:47:15;;;;;;;3.00;2.37;;;20.20;99.90;;;;;;5094876;28;20811;-78
2021/07/07 10:49:44;;;;;;;5.33;2.77;;;20.60;99.90;;;;;;5094733;28;20863;-77
2021/07/07 10:52:13;;;;;;;2.13;2.03;;;20.70;99.90;;;;;;5094121;28;20526;-77
2021/07/07 10:54:41;;;;;;;2.70;2.50;;;20.80;99.90;;;;;;5094030;28;20904;-77
2021/07/07 10:57:11;;;;;;;2.47;2.30;;;20.60;99.90;;;;;;5094280;28;20470;-76
2021/07/07 10:59:39;;;;;;;2.80;2.60;;;20.50;99.90;;;;;;5094722;28;20453;-77
2021/07/07 11:02:08;;;;;;;2.60;2.37;;;20.20;99.90;;;;;;5094349;28;20478;-77
2021/07/07 11:04:37;;;;;;;2.77;2.57;;;20.00;99.90;;;;;;5094069;28;20553;-77
2021/07/07 11:07:33;;;;;;;3.13;2.57;;;20.00;99.90;;;;;;5093798;28;20533;-77
2021/07/07 11:10:02;;;;;;;2.70;2.50;;;19.90;99.90;;;;;;5094186;28;20434;-77
2021/07/07 11:13:06;;;;;;;3.23;2.87;;;19.80;99.90;;;;;;5094011;28;20533;-76
2021/07/07 11:15:36;;;;;;;3.50;3.20;;;19.70;99.90;;;;;;5093790;28;20456;-77
2021/07/07 11:18:04;;;;;;;5.53;2.87;;;19.80;99.90;;;;;;5093864;28;20475;-77
2021/07/07 11:20:34;;;;;;;3.20;2.70;;;19.80;99.90;;;;;;5093830;28;20449;-76
2021/07/07 11:23:06;;;;;;;3.07;2.70;;;19.90;99.90;;;;;;5095220;28;20757;-77
2021/07/07 11:25:34;;;;;;;2.93;2.60;;;19.90;99.90;;;;;;5097842;28;20447;-77
2021/07/07 11:28:03;;;;;;;4.53;3.13;;;20.00;99.90;;;;;;5097590;28;20458;-77
2021/07/07 11:30:30;;;;;;;3.23;2.90;;;20.00;99.90;;;;;;5097362;28;20453;-77
2021/07/07 11:33:02;;;;;;;3.33;2.57;;;20.00;99.90;;;;;;5097883;28;20537;-77
2021/07/07 11:35:31;;;;;;;3.80;2.80;;;20.20;99.90;;;;;;5097755;28;20788;-77
2021/07/07 11:37:59;;;;;;;4.63;2.73;;;20.20;99.90;;;;;;5097571;28;20470;-77
2021/07/07 11:40:30;;;;;;;3.50;2.67;;;20.50;99.90;;;;;;5097088;28;20452;-77
2021/07/07 11:42:59;;;;;;;2.60;2.40;;;20.70;99.90;;;;;;5097856;28;20569;-77
2021/07/07 11:45:28;;;;;;;3.10;2.80;;;20.80;99.90;;;;;;5097688;28;20537;-77
2021/07/07 11:48:00;;;;;;;2.63;2.43;;;20.80;99.90;;;;;;5097105;28;20498;-77
2021/07/07 11:50:29;;;;;;;4.10;2.30;;;21.00;99.90;;;;;;5097130;28;20771;-77
2021/07/07 11:53:01;;;;;;;3.73;2.70;;;21.10;99.90;;;;;;5097299;28;20539;-77
2021/07/07 11:55:45;;;;;;;2.47;2.27;;;21.30;99.90;;;;;;5097396;28;20805;-77
2021/07/07 11:58:19;;;;;;;3.53;2.00;;;21.50;99.90;;;;;;5097300;28;20963;-77
2021/07/07 12:00:46;;;;;;;2.43;1.97;;;21.50;99.90;;;;;;5096919;28;20519;-77
2021/07/07 12:03:13;;;;;;;2.23;1.90;;;21.50;99.90;;;;;;5097071;28;20479;-77
2021/07/07 12:05:49;;;;;;;1.93;1.70;;;21.60;99.90;;;;;;5097195;28;20523;-77
2021/07/07 12:08:16;;;;;;;2.37;2.27;;;21.80;99.90;;;;;;5097489;28;20551;-78
2021/07/07 12:10:43;;;;;;;2.90;2.07;;;22.00;99.90;;;;;;5096800;28;20939;-77
2021/07/07 12:13:21;;;;;;;2.00;1.90;;;22.10;99.90;;;;;;5096791;28;20483;-78
2021/07/07 12:15:48;;;;;;;1.80;1.70;;;22.40;99.90;;;;;;5096896;28;20447;-77
2021/07/07 12:18:24;;;;;;;1.90;1.80;;;22.40;99.90;;;;;;5097093;28;20547;-76
2021/07/07 12:20:52;;;;;;;1.80;1.70;;;22.20;99.90;;;;;;5096529;28;20450;-77
2021/07/07 12:23:19;;;;;;;2.10;2.00;;;22.10;99.90;;;;;;5096894;28;20439;-77
2021/07/07 12:25:46;;;;;;;1.47;1.37;;;22.10;99.90;;;;;;5096518;28;20454;-77
2021/07/07 12:28:13;;;;;;;2.00;1.80;;;22.00;99.90;;;;;;5096733;28;20540;-77
2021/07/07 12:30:41;;;;;;;1.97;1.87;;;22.00;99.90;;;;;;5096202;28;20479;-77
2021/07/07 12:33:08;;;;;;;2.70;1.90;;;21.90;99.90;;;;;;5096998;28;20494;-77
2021/07/07 12:35:34;;;;;;;1.57;1.50;;;21.90;99.90;;;;;;5095689;28;20527;-77
2021/07/07 12:38:03;;;;;;;1.70;1.60;;;21.70;99.90;;;;;;5097047;28;20855;-77
2021/07/07 12:40:30;;;;;;;2.00;1.90;;;21.80;99.90;;;;;;5096418;28;20522;-78
2021/07/07 12:43:11;;;;;;;1.87;1.77;;;22.00;99.90;;;;;;5096823;28;20485;-77
2021/07/07 12:45:37;;;;;;;2.67;2.47;;;22.00;99.90;;;;;;5096889;28;20448;-77
2021/07/07 12:48:06;;;;;;;2.23;2.07;;;22.00;99.90;;;;;;5096362;28;20989;-78
2021/07/07 12:50:37;;;;;;;2.77;1.60;;;22.10;99.90;;;;;;5096223;28;21003;-78
2021/07/07 12:53:05;;;;;;;1.60;1.50;;;22.30;99.90;;;;;;5096655;28;20440;-78
2021/07/07 12:55:32;;;;;;;1.50;1.40;;;22.50;99.90;;;;;;5096567;28;20447;-78
2021/07/07 12:58:01;;;;;;;1.30;1.20;;;22.70;99.90;;;;;;5096801;28;20466;-78
2021/07/07 13:00:43;;;;;;;1.30;1.30;;;22.90;99.90;;;;;;5096052;28;21003;-78
2021/07/07 13:03:12;;;;;;;1.87;1.77;;;22.80;99.90;;;;;;5096340;28;20472;-78